createdAt,value
2018-07-22T00:00:36.978Z,23.54
2018-07-22T00:03:05.034Z,23.42
2018-07-22T00:05:33.129Z,23.34
2018-07-22T00:08:01.128Z,23.25
2018-07-22T00:10:30.236Z,23.29
2018-07-22T00:12:59.330Z,23.29
2018-07-22T00:15:27.369Z,23.22
2018-07-22T00:17:55.342Z,23.18
2018-07-22T00:20:23.611Z,23.05
2018-07-22T00:22:51.712Z,23.06
2018-07-22T00:25:19.676Z,23.00
2018-07-22T00:27:48.059Z,23.06
2018-07-22T00:30:16.048Z,23.11
2018-07-22T00:32:43.969Z,23.11
2018-07-22T00:35:12.718Z,23.11
2018-07-22T00:37:41.209Z,23.14
2018-07-22T00:40:10.575Z,23.06
2018-07-22T00:42:38.762Z,23.01
2018-07-22T00:45:08.723Z,23.01
2018-07-22T00:47:36.568Z,22.98
2018-07-22T00:50:05.364Z,22.93
2018-07-22T00:52:33.359Z,22.89
2018-07-22T00:55:01.188Z,22.87
2018-07-22T00:57:29.244Z,22.96
2018-07-22T00:59:57.215Z,22.87
2018-07-22T01:02:25.312Z,22.82
2018-07-22T01:04:53.505Z,22.81
2018-07-22T01:07:21.334Z,22.79
2018-07-22T01:09:49.204Z,22.73
2018-07-22T01:12:17.282Z,22.65
2018-07-22T01:14:45.151Z,22.58
2018-07-22T01:17:13.087Z,22.51
2018-07-22T01:19:41.357Z,22.49
2018-07-22T01:22:09.408Z,22.43
2018-07-22T01:24:37.460Z,22.46
2018-07-22T01:27:06.368Z,22.48
2018-07-22T01:29:34.398Z,22.51
2018-07-22T01:32:02.229Z,22.42
2018-07-22T01:34:30.266Z,22.45
2018-07-22T01:36:58.213Z,22.49
2018-07-22T01:39:26.092Z,22.51
2018-07-22T01:41:54.963Z,22.48
2018-07-22T01:44:22.819Z,22.38
2018-07-22T01:46:50.750Z,22.29
2018-07-22T01:49:18.775Z,22.28
2018-07-22T01:51:46.807Z,22.23
2018-07-22T01:54:14.898Z,22.13
2018-07-22T01:56:42.777Z,22.12
2018-07-22T01:59:10.774Z,22.25
2018-07-22T02:08:23.296Z,21.80
2018-07-22T02:10:51.226Z,21.72
2018-07-22T02:13:19.175Z,21.73
2018-07-22T02:15:47.237Z,21.80
2018-07-22T02:18:15.479Z,21.86
2018-07-22T02:20:44.647Z,21.84
2018-07-22T02:23:12.982Z,21.93
2018-07-22T02:25:40.833Z,21.93
2018-07-22T02:28:08.803Z,21.82
2018-07-22T02:30:37.231Z,21.84
2018-07-22T02:33:05.361Z,21.87
2018-07-22T02:35:33.305Z,21.85
2018-07-22T02:38:01.611Z,21.80
2018-07-22T02:40:29.482Z,21.89
2018-07-22T02:42:57.442Z,21.87
2018-07-22T02:45:25.609Z,21.77
2018-07-22T02:47:53.492Z,21.89
2018-07-22T02:50:21.441Z,21.81
2018-07-22T02:52:49.657Z,21.86
2018-07-22T02:55:17.769Z,21.84
2018-07-22T02:57:45.782Z,21.78
2018-07-22T03:00:14.791Z,21.81
2018-07-22T03:02:42.855Z,21.68
2018-07-22T03:05:10.782Z,21.64
2018-07-22T03:07:38.814Z,21.72
2018-07-22T03:10:06.690Z,21.92
2018-07-22T03:12:34.740Z,21.90
2018-07-22T03:15:03.039Z,21.93
2018-07-22T03:17:31.510Z,21.92
2018-07-22T03:19:59.426Z,21.89
2018-07-22T03:22:27.519Z,21.95
2018-07-22T03:24:56.073Z,22.06
2018-07-22T03:27:23.974Z,22.13
2018-07-22T03:29:51.883Z,22.20
2018-07-22T03:32:19.840Z,22.36
2018-07-22T03:34:47.897Z,22.36
2018-07-22T03:37:15.894Z,22.28
2018-07-22T03:39:43.996Z,22.40
2018-07-22T03:42:12.061Z,22.48
2018-07-22T03:44:40.232Z,22.58
2018-07-22T03:47:08.434Z,22.67
2018-07-22T03:49:36.387Z,22.77
2018-07-22T03:52:04.420Z,22.87
2018-07-22T03:54:32.451Z,23.00
2018-07-22T03:57:00.553Z,23.14
2018-07-22T03:59:28.571Z,23.23
2018-07-22T04:01:57.084Z,23.38
2018-07-22T04:04:25.012Z,23.55
2018-07-22T04:06:52.820Z,23.68
2018-07-22T04:09:21.120Z,23.85
2018-07-22T04:11:48.979Z,23.87
2018-07-22T04:14:16.956Z,23.97
2018-07-22T04:16:45.188Z,24.05
2018-07-22T04:19:12.995Z,24.12
2018-07-22T04:21:40.790Z,24.33
2018-07-22T04:25:11.575Z,24.47
2018-07-22T04:27:39.522Z,24.47
2018-07-22T04:30:07.404Z,24.69
2018-07-22T04:32:35.708Z,24.95
2018-07-22T04:35:03.758Z,24.87
2018-07-22T04:37:31.720Z,25.00
2018-07-22T04:39:59.876Z,25.28
2018-07-22T04:42:27.688Z,25.43
2018-07-22T04:51:40.189Z,25.87
2018-07-22T04:54:08.247Z,26.12
2018-07-22T04:56:36.268Z,26.41
2018-07-22T04:59:04.255Z,26.67
2018-07-22T05:01:32.244Z,26.70
2018-07-22T05:04:00.238Z,26.77
2018-07-22T05:06:28.505Z,27.01
2018-07-22T05:08:56.455Z,27.34
2018-07-22T05:11:24.438Z,27.74
2018-07-22T05:13:52.672Z,27.85
2018-07-22T05:16:20.637Z,28.09
2018-07-22T05:18:48.526Z,28.32
2018-07-22T05:21:16.743Z,27.97
2018-07-22T05:23:44.761Z,28.11
2018-07-22T05:26:12.601Z,28.49
2018-07-22T05:28:40.728Z,28.91
2018-07-22T05:31:08.790Z,27.90
2018-07-22T05:33:36.745Z,28.66
2018-07-22T05:36:04.770Z,28.92
2018-07-22T05:38:32.747Z,29.17
2018-07-22T05:41:00.735Z,29.55
2018-07-22T05:43:28.720Z,29.30
2018-07-22T05:45:56.938Z,28.83
2018-07-22T05:48:24.835Z,29.57
2018-07-22T05:50:52.666Z,29.77
2018-07-22T05:53:20.581Z,30.02
2018-07-22T05:55:49.499Z,29.60
2018-07-22T05:58:17.843Z,30.28
2018-07-22T06:00:45.779Z,30.47
2018-07-22T06:03:13.661Z,29.71
2018-07-22T06:05:41.527Z,29.89
2018-07-22T06:08:09.514Z,30.36
2018-07-22T06:10:37.517Z,30.82
2018-07-22T06:13:05.651Z,30.67
2018-07-22T06:15:33.549Z,30.55
2018-07-22T06:18:01.506Z,30.27
2018-07-22T06:20:29.515Z,29.60
2018-07-22T06:22:57.412Z,29.09
2018-07-22T06:25:25.379Z,28.71
2018-07-22T06:27:53.450Z,28.21
2018-07-22T06:30:21.349Z,28.53
2018-07-22T06:32:49.320Z,28.54
2018-07-22T06:35:17.548Z,28.58
2018-07-22T06:37:45.520Z,28.66
2018-07-22T06:40:13.548Z,28.53
2018-07-22T06:42:42.248Z,28.41
2018-07-22T06:45:10.395Z,28.41
2018-07-22T06:47:38.196Z,28.42
2018-07-22T06:50:06.237Z,28.40
2018-07-22T06:52:35.166Z,27.98
2018-07-22T06:55:03.196Z,28.06
2018-07-22T06:57:31.272Z,28.12
2018-07-22T06:59:59.290Z,27.96
2018-07-22T07:02:27.427Z,28.23
2018-07-22T07:04:55.401Z,28.34
2018-07-22T07:07:23.947Z,28.29
2018-07-22T07:09:51.958Z,28.12
2018-07-22T07:12:19.979Z,28.11
2018-07-22T07:14:47.954Z,28.13
2018-07-22T07:17:16.942Z,28.20
2018-07-22T07:19:44.815Z,28.24
2018-07-22T07:22:13.924Z,28.49
2018-07-22T07:24:41.799Z,28.50
2018-07-22T07:27:10.135Z,28.73
2018-07-22T07:29:38.640Z,28.96
2018-07-22T07:32:06.987Z,28.99
2018-07-22T07:34:34.935Z,28.77
2018-07-22T07:37:03.227Z,29.06
2018-07-22T07:40:34.106Z,29.06
2018-07-22T07:43:02.209Z,29.28
2018-07-22T07:45:30.149Z,29.44
2018-07-22T07:48:01.093Z,29.31
2018-07-22T07:50:29.201Z,29.16
2018-07-22T07:52:57.081Z,29.27
2018-07-22T07:55:25.109Z,29.53
2018-07-22T07:57:55.170Z,29.87
2018-07-22T08:00:23.161Z,30.06
2018-07-22T08:02:51.198Z,29.84
2018-07-22T08:05:19.562Z,29.80
2018-07-22T08:07:47.653Z,29.94
2018-07-22T08:10:15.590Z,29.81
2018-07-22T08:12:44.179Z,29.61
2018-07-22T08:15:12.358Z,29.51
2018-07-22T08:17:40.426Z,29.83
2018-07-22T08:20:09.231Z,30.07
2018-07-22T08:22:37.308Z,30.23
2018-07-22T08:25:06.108Z,30.24
2018-07-22T08:27:34.571Z,30.39
2018-07-22T08:30:02.834Z,30.43
2018-07-22T08:32:30.714Z,30.20
2018-07-22T08:34:58.925Z,30.21
2018-07-22T08:37:27.922Z,30.55
2018-07-22T08:39:55.971Z,30.57
2018-07-22T08:42:24.237Z,30.92
2018-07-22T08:44:52.334Z,31.15
2018-07-22T08:47:20.417Z,31.32
2018-07-22T08:49:49.668Z,31.03
2018-07-22T08:52:17.816Z,31.01
2018-07-22T08:54:45.800Z,30.82
2018-07-22T08:57:14.167Z,30.60
2018-07-22T08:59:42.127Z,30.93
2018-07-22T09:02:10.423Z,30.93
2018-07-22T09:04:38.614Z,31.31
2018-07-22T09:07:06.685Z,31.65
2018-07-22T09:09:34.665Z,31.58
2018-07-22T09:12:03.732Z,31.50
2018-07-22T09:14:31.854Z,31.75
2018-07-22T09:16:59.913Z,32.05
2018-07-22T09:19:27.980Z,32.12
2018-07-22T09:21:55.950Z,32.11
2018-07-22T09:24:23.914Z,32.10
2018-07-22T09:26:52.688Z,32.19
2018-07-22T09:29:20.663Z,31.98
2018-07-22T09:31:48.698Z,31.65
2018-07-22T09:34:17.434Z,32.01
2018-07-22T09:36:45.425Z,32.25
2018-07-22T09:39:13.542Z,32.24
2018-07-22T09:41:41.618Z,32.01
2018-07-22T09:44:09.616Z,32.16
2018-07-22T09:46:37.702Z,31.88
2018-07-22T09:49:05.896Z,32.20
2018-07-22T09:51:34.009Z,32.43
2018-07-22T09:54:02.028Z,32.56
2018-07-22T09:56:30.137Z,32.55
2018-07-22T09:58:58.051Z,32.54
2018-07-22T10:01:26.117Z,32.43
2018-07-22T10:03:54.250Z,32.90
2018-07-22T10:06:22.109Z,32.88
2018-07-22T10:08:49.914Z,32.84
2018-07-22T10:11:17.984Z,32.70
2018-07-22T10:13:45.813Z,32.37
2018-07-22T10:16:13.867Z,32.60
2018-07-22T10:18:42.378Z,33.08
2018-07-22T10:21:10.403Z,33.42
2018-07-22T10:23:38.411Z,33.59
2018-07-22T10:26:06.454Z,33.85
2018-07-22T10:28:34.453Z,33.92
2018-07-22T10:31:02.484Z,33.84
2018-07-22T10:33:30.516Z,33.61
2018-07-22T10:35:58.578Z,33.85
2018-07-22T10:38:26.539Z,33.62
2018-07-22T10:40:54.812Z,33.55
2018-07-22T10:43:22.815Z,33.58
2018-07-22T10:45:50.838Z,33.43
2018-07-22T10:48:19.055Z,33.46
2018-07-22T10:50:47.014Z,33.45
2018-07-22T10:53:15.045Z,33.66
2018-07-22T10:55:43.283Z,33.65
2018-07-22T10:58:11.193Z,33.61
2018-07-22T11:00:39.316Z,33.61
2018-07-22T11:03:07.732Z,33.75
2018-07-22T11:05:35.906Z,33.59
2018-07-22T11:08:03.940Z,33.92
2018-07-22T11:10:32.966Z,34.12
2018-07-22T11:13:00.766Z,34.20
2018-07-22T11:15:28.642Z,34.08
2018-07-22T11:17:56.833Z,33.92
2018-07-22T11:20:24.798Z,34.22
2018-07-22T11:22:52.585Z,34.38
2018-07-22T11:25:20.740Z,34.54
2018-07-22T11:27:48.549Z,34.41
2018-07-22T11:30:16.474Z,34.05
2018-07-22T11:32:44.956Z,34.06
2018-07-22T11:35:12.950Z,34.19
2018-07-22T11:37:40.855Z,34.62
2018-07-22T11:40:08.906Z,34.56
2018-07-22T11:42:36.927Z,34.77
2018-07-22T11:45:05.090Z,34.97
2018-07-22T11:47:32.952Z,35.16
2018-07-22T11:50:00.799Z,34.79
2018-07-22T11:52:28.870Z,34.68
2018-07-22T11:54:56.954Z,35.02
2018-07-22T11:57:24.848Z,35.13
2018-07-22T11:59:52.692Z,34.99
2018-07-22T12:02:21.038Z,35.23
2018-07-22T12:04:49.013Z,34.75
2018-07-22T12:07:17.036Z,34.99
2018-07-22T12:09:45.165Z,35.21
2018-07-22T12:12:13.226Z,35.35
2018-07-22T12:14:41.266Z,35.35
2018-07-22T12:17:09.286Z,35.20
2018-07-22T12:19:37.477Z,35.18
2018-07-22T12:22:05.382Z,35.40
2018-07-22T12:24:33.473Z,35.39
2018-07-22T12:27:01.515Z,35.52
2018-07-22T12:29:29.630Z,35.55
2018-07-22T12:31:57.502Z,35.47
2018-07-22T12:34:25.511Z,35.28
2018-07-22T12:36:53.490Z,34.96
2018-07-22T12:39:22.207Z,34.80
2018-07-22T12:41:50.137Z,35.00
2018-07-22T12:44:18.042Z,35.16
2018-07-22T12:46:46.271Z,35.32
2018-07-22T12:49:14.210Z,35.56
2018-07-22T12:51:42.147Z,36.10
2018-07-22T12:54:10.171Z,36.47
2018-07-22T12:56:38.140Z,36.43
2018-07-22T12:59:06.048Z,36.18
2018-07-22T13:01:34.336Z,35.99
2018-07-22T13:04:02.407Z,35.72
2018-07-22T13:06:30.474Z,35.41
2018-07-22T13:08:59.687Z,35.38
2018-07-22T13:11:27.701Z,35.48
2018-07-22T13:13:55.735Z,35.53
2018-07-22T13:16:23.836Z,35.21
2018-07-22T13:18:51.943Z,35.00
2018-07-22T13:21:19.991Z,34.72
2018-07-22T13:23:48.214Z,34.65
2018-07-22T13:26:16.240Z,34.79
2018-07-22T13:28:44.228Z,35.10
2018-07-22T13:31:12.151Z,35.15
2018-07-22T13:33:40.226Z,34.92
2018-07-22T13:36:08.235Z,34.69
2018-07-22T13:38:36.111Z,34.51
2018-07-22T13:41:04.086Z,34.44
2018-07-22T13:43:32.125Z,34.31
2018-07-22T13:46:00.185Z,34.28
2018-07-22T13:48:28.003Z,34.31
2018-07-22T13:50:56.063Z,34.42
2018-07-22T13:53:25.103Z,34.47
2018-07-22T13:55:53.017Z,34.60
2018-07-22T13:58:20.976Z,34.82
2018-07-22T14:00:49.447Z,34.82
2018-07-22T14:03:17.764Z,34.88
2018-07-22T14:05:45.762Z,34.80
2018-07-22T14:08:13.917Z,34.68
2018-07-22T14:10:41.902Z,34.77
2018-07-22T14:13:09.875Z,35.00
2018-07-22T14:15:38.030Z,35.02
2018-07-22T14:18:06.299Z,35.23
2018-07-22T14:20:34.352Z,35.10
2018-07-22T14:23:02.597Z,35.17
2018-07-22T14:25:30.593Z,35.32
2018-07-22T14:27:58.583Z,35.54
2018-07-22T14:30:27.318Z,35.69
2018-07-22T14:32:55.327Z,36.00
2018-07-22T14:35:23.361Z,35.97
2018-07-22T14:37:51.364Z,35.84
2018-07-22T14:40:19.272Z,36.00
2018-07-22T14:42:47.831Z,36.03
2018-07-22T14:45:15.982Z,35.90
2018-07-22T14:47:43.883Z,35.74
2018-07-22T14:50:11.947Z,35.46
2018-07-22T14:52:39.964Z,35.23
2018-07-22T14:55:08.050Z,34.86
2018-07-22T14:57:36.161Z,34.79
2018-07-22T15:00:04.883Z,34.73
2018-07-22T15:02:32.934Z,34.60
2018-07-22T15:05:00.761Z,34.45
2018-07-22T15:07:28.944Z,34.53
2018-07-22T15:09:56.969Z,34.49
2018-07-22T15:12:25.127Z,34.44
2018-07-22T15:14:53.093Z,34.26
2018-07-22T15:17:21.161Z,34.26
2018-07-22T15:19:50.087Z,34.34
2018-07-22T15:22:19.264Z,34.11
2018-07-22T15:24:47.283Z,34.42
2018-07-22T15:27:15.293Z,34.55
2018-07-22T15:29:43.439Z,34.63
2018-07-22T15:32:11.376Z,34.87
2018-07-22T15:34:39.483Z,34.85
2018-07-22T15:37:07.624Z,34.90
2018-07-22T15:39:35.789Z,34.37
2018-07-22T15:42:03.750Z,34.02
2018-07-22T15:44:31.788Z,33.93
2018-07-22T15:46:59.835Z,33.90
2018-07-22T15:49:27.957Z,33.80
2018-07-22T15:51:56.762Z,33.91
2018-07-22T15:54:24.994Z,33.80
2018-07-22T15:56:52.946Z,33.64
2018-07-22T15:59:21.075Z,33.67
2018-07-22T16:01:49.078Z,33.78
2018-07-22T16:04:17.126Z,33.86
2018-07-22T16:06:45.314Z,34.01
2018-07-22T16:09:13.276Z,33.58
2018-07-22T16:11:42.199Z,32.31
2018-07-22T16:14:10.293Z,31.88
2018-07-22T16:16:38.199Z,27.46
2018-07-22T16:19:06.376Z,24.94
2018-07-22T16:21:34.592Z,24.68
2018-07-22T16:24:02.561Z,24.60
2018-07-22T16:26:30.451Z,24.62
2018-07-22T16:28:58.959Z,24.75
2018-07-22T16:31:26.971Z,25.00
2018-07-22T16:33:54.858Z,25.24
2018-07-22T16:36:23.209Z,25.50
2018-07-22T16:38:51.242Z,25.74
2018-07-22T16:41:19.202Z,25.72
2018-07-22T16:43:47.441Z,25.67
2018-07-22T16:46:15.379Z,25.75
2018-07-22T16:48:43.217Z,25.95
2018-07-22T16:51:11.623Z,26.05
2018-07-22T16:53:39.669Z,26.10
2018-07-22T16:56:07.702Z,26.10
2018-07-22T16:58:35.808Z,26.19
2018-07-22T17:01:03.833Z,26.11
2018-07-22T17:03:31.857Z,26.07
2018-07-22T17:05:59.720Z,25.89
2018-07-22T17:08:27.512Z,25.85
2018-07-22T17:10:55.559Z,25.70
2018-07-22T17:13:23.570Z,25.70
2018-07-22T17:15:51.866Z,25.80
2018-07-22T17:18:19.802Z,25.64
2018-07-22T17:20:48.046Z,25.45
2018-07-22T17:23:16.079Z,25.31
2018-07-22T17:25:44.147Z,25.12
2018-07-22T17:28:12.497Z,25.07
2018-07-22T17:30:40.458Z,25.05
2018-07-22T17:33:08.494Z,25.07
2018-07-22T17:35:37.559Z,25.13
2018-07-22T17:38:05.489Z,25.10
2018-07-22T17:40:33.672Z,25.20
2018-07-22T17:43:02.502Z,25.32
2018-07-22T17:45:30.403Z,25.36
2018-07-22T17:47:58.399Z,25.37
2018-07-22T17:50:26.712Z,25.32
2018-07-22T17:52:54.732Z,25.22
2018-07-22T17:55:22.703Z,25.12
2018-07-22T17:57:50.698Z,25.05
2018-07-22T18:00:18.751Z,25.04
2018-07-22T18:03:19.702Z,25.16
2018-07-22T18:05:47.752Z,25.07
2018-07-22T18:08:15.675Z,24.90
2018-07-22T18:10:43.903Z,24.85
2018-07-22T18:13:11.748Z,24.78
2018-07-22T18:15:39.933Z,24.63
2018-07-22T18:18:08.029Z,24.56
2018-07-22T18:20:36.142Z,24.43
2018-07-22T18:23:04.225Z,24.33
2018-07-22T18:25:32.204Z,24.17
2018-07-22T18:28:00.410Z,24.11
2018-07-22T18:30:28.414Z,24.02
2018-07-22T18:32:56.490Z,23.90
2018-07-22T18:35:24.598Z,23.79
2018-07-22T18:37:52.880Z,23.76
2018-07-22T18:40:21.332Z,23.76
2018-07-22T18:42:49.355Z,23.63
2018-07-22T18:45:17.327Z,23.62
2018-07-22T18:47:45.380Z,23.57
2018-07-22T18:50:13.465Z,23.56
2018-07-22T18:52:41.439Z,23.43
2018-07-22T18:55:09.367Z,23.37
2018-07-22T18:57:37.507Z,23.50
2018-07-22T19:00:05.806Z,23.49
2018-07-22T19:02:34.314Z,23.43
2018-07-22T19:05:02.457Z,23.50
2018-07-22T19:07:30.330Z,23.53
2018-07-22T19:10:02.292Z,23.50
2018-07-22T19:12:30.256Z,23.56
2018-07-22T19:14:58.358Z,23.57
2018-07-22T19:17:30.009Z,23.54
2018-07-22T19:19:58.048Z,23.45
2018-07-22T19:22:25.976Z,23.42
2018-07-22T19:24:54.119Z,23.46
2018-07-22T19:27:22.150Z,23.46
2018-07-22T19:29:50.298Z,23.43
2018-07-22T19:32:18.231Z,23.41
2018-07-22T19:34:46.364Z,23.36
2018-07-22T19:37:14.514Z,23.36
2018-07-22T19:39:42.494Z,23.26
2018-07-22T19:42:10.453Z,23.12
2018-07-22T19:44:38.431Z,23.13
2018-07-22T19:47:06.703Z,23.09
2018-07-22T19:49:34.757Z,23.04
2018-07-22T19:52:02.722Z,23.05
2018-07-22T19:54:30.926Z,23.10
2018-07-22T19:56:59.030Z,23.13
2018-07-22T19:59:26.862Z,23.11
2018-07-22T20:01:55.337Z,23.13
2018-07-22T20:04:23.297Z,23.10
2018-07-22T20:06:51.487Z,23.05
2018-07-22T20:09:19.757Z,23.03
2018-07-22T20:11:48.022Z,22.96
2018-07-22T20:14:16.108Z,22.85
2018-07-22T20:16:44.555Z,22.76
2018-07-22T20:19:12.586Z,22.71
2018-07-22T20:21:40.504Z,22.69
2018-07-22T20:24:08.961Z,22.67
2018-07-22T20:26:37.113Z,22.75
2018-07-22T20:29:05.231Z,22.79
2018-07-22T20:31:33.231Z,22.81
2018-07-22T20:34:01.231Z,22.82
2018-07-22T20:36:29.134Z,22.75
2018-07-22T20:38:57.320Z,22.74
2018-07-22T20:41:25.506Z,22.63
2018-07-22T20:43:53.642Z,22.63
2018-07-22T20:46:22.140Z,22.64
2018-07-22T20:48:50.206Z,22.67
2018-07-22T20:51:18.167Z,22.69
2018-07-22T20:53:46.565Z,22.68
2018-07-22T20:56:14.417Z,22.62
2018-07-22T20:58:43.198Z,22.73
2018-07-22T21:01:11.230Z,22.79
2018-07-22T21:03:39.159Z,22.73
2018-07-22T21:06:07.062Z,22.65
2018-07-22T21:08:35.568Z,22.55
2018-07-22T21:11:03.728Z,22.65
2018-07-22T21:13:31.687Z,22.57
2018-07-22T21:15:59.969Z,22.63
2018-07-22T21:18:27.933Z,22.68
2018-07-22T21:20:56.105Z,22.65
2018-07-22T21:23:24.280Z,22.62
2018-07-22T21:25:52.475Z,22.65
2018-07-22T21:28:20.430Z,22.61
2018-07-22T21:30:48.803Z,22.70
2018-07-22T21:33:16.838Z,22.75
2018-07-22T21:35:44.918Z,22.76
2018-07-22T21:38:13.280Z,22.76
2018-07-22T21:40:41.181Z,22.78
2018-07-22T21:43:09.245Z,22.79
2018-07-22T21:45:37.404Z,22.75
2018-07-22T21:48:05.505Z,22.51
2018-07-22T21:50:33.523Z,22.48
2018-07-22T21:53:01.697Z,22.40
2018-07-22T21:55:29.608Z,22.32
2018-07-22T21:57:57.754Z,22.32
2018-07-22T22:00:32.214Z,22.30
2018-07-22T22:03:01.723Z,22.26
2018-07-22T22:05:29.687Z,22.36
2018-07-22T22:07:58.427Z,22.41
2018-07-22T22:10:26.768Z,22.33
2018-07-22T22:12:55.092Z,22.28
2018-07-22T22:15:28.128Z,22.17
2018-07-22T22:17:59.120Z,22.08
2018-07-22T22:20:27.641Z,21.99
2018-07-22T22:22:56.249Z,21.97
2018-07-22T22:25:24.287Z,21.86
2018-07-22T22:27:52.439Z,21.83
2018-07-22T22:30:20.382Z,21.83
2018-07-22T22:32:48.614Z,21.82
2018-07-22T22:35:16.544Z,21.82
2018-07-22T22:37:45.346Z,21.97
2018-07-22T22:40:14.235Z,21.97
2018-07-22T22:42:43.603Z,21.89
2018-07-22T22:45:12.560Z,21.81
2018-07-22T22:47:40.596Z,21.87
2018-07-22T22:50:08.672Z,21.81
2018-07-22T22:52:36.760Z,21.84
2018-07-22T22:55:04.867Z,21.79
2018-07-22T22:57:32.860Z,21.88
2018-07-22T23:00:01.372Z,21.94
2018-07-22T23:02:35.424Z,22.03
2018-07-22T23:05:04.338Z,21.95
2018-07-22T23:07:32.312Z,21.87
2018-07-22T23:10:00.359Z,21.81
2018-07-22T23:12:28.436Z,21.80
2018-07-22T23:14:56.498Z,21.79
2018-07-22T23:17:24.646Z,21.76
2018-07-22T23:19:52.666Z,21.73
2018-07-22T23:22:20.738Z,21.79
2018-07-22T23:24:48.731Z,21.89
2018-07-22T23:27:16.818Z,21.86
2018-07-22T23:29:44.971Z,21.83
2018-07-22T23:32:13.007Z,21.73
2018-07-22T23:34:41.088Z,21.75
2018-07-22T23:37:09.115Z,21.83
2018-07-22T23:42:04.704Z,21.93
2018-07-22T23:44:32.745Z,21.90
2018-07-22T23:47:00.845Z,21.93
2018-07-22T23:49:28.837Z,21.86
2018-07-22T23:51:56.949Z,21.81
2018-07-22T23:54:25.016Z,21.83
2018-07-22T23:56:53.526Z,21.82
2018-07-22T23:59:21.532Z,21.82
